Terminal Aerodrome Forecast
Issued by NWS Blacksburg, VA

Home | Current Version | Previous Version | Text Only | Print | Product List | Glossary On
Versions: 1 2 3 4 5 6 7 8 9 10 11 12 13 14 15
000
FTUS41 KRNK 232327
TAFBLF
TAF
KBLF 232327Z 2400/2424 VRB03KT P6SM SCT050
     FM240900 12003KT P6SM SCT035 BKN140
     FM241700 24006KT P6SM BKN040 BKN120=

USA.gov is the U.S. government's official web portal to all federal, state and local government web resources and services.